Solidarnosc (vanuatu) — YJZC9 — position and weather

sailwx.info

Track history (hours):
 
Tides and Currents Weather Stations Pressure Air Temp Water Temp Dewpoint Dewpoint Depression Visibility Wind Speed Wind Dir Waves Ship Positions

Solidarnosc (vanuatu)

Last reported at 2015-Apr-18 12:33 UTC. Time now 2015-Apr-18 13:08 UTC.
Position N 37°18' E 006°24'.

Length 229 m; beam 32 m.

Type: Ship. MMSI: 576005000.

Date/timePositionNaut miles runAvg speedWind from/ knotsBaromVisibWave heightAir tempDewpointWater temp
2015-Apr-18 12:33N 37°18' E 006°24'1313.0
2015-Apr-18 11:33N 37°16' E 006°08'1512.7
2015-Apr-18 10:20N 37°14' E 005°49'2812.7
2015-Apr-18 08:08N 37°13' E 005°14'13213.4
2015-Apr-17 22:15N 36°57' E 002°30'2413.3
2015-Apr-17 20:29N 36°53' E 002°01'5413.6
2015-Apr-17 16:32N 36°45' E 000°54'1414.3
2015-Apr-17 15:33N 36°43' E 000°37'1514.6
2015-Apr-17 14:33N 36°41' E 000°19'1414.1
2015-Apr-17 13:33N 36°39' E 000°01'3013.4
2015-Apr-17 11:20N 36°34' W 000°35'3813.3
2015-Apr-17 08:28N 36°28' W 001°22'18813.1
2015-Apr-16 18:06N 35°59' W 005°12'815.2
2015-Apr-16 17:34N 35°58' W 005°22'  
2015-Apr-13 22:28N 37°28' W 023°48'1112.7
2015-Apr-13 21:34N 37°28' W 024°02'1312.6
2015-Apr-13 20:33N 37°29' W 024°18'1312.6
2015-Apr-13 19:33N 37°29' W 024°34'1212.1
2015-Apr-13 18:33N 37°29' W 024°49'1312.8
2015-Apr-13 17:34N 37°30' W 025°05'1313.2
2015-Apr-13 16:34N 37°30' W 025°22'1313.1
2015-Apr-13 15:33N 37°30' W 025°39'1312.7
2015-Apr-13 14:33N 37°29' W 025°55'1212.4
2015-Apr-13 13:33N 37°29' W 026°10'1212.4
2015-Apr-13 12:34N 37°29' W 026°26'1212.3
2015-Apr-13 11:33N 37°29' W 026°41'1212.1
2015-Apr-13 10:33N 37°29' W 026°57'1212.5
2015-Apr-13 09:34N 37°28' W 027°12'1312.5
2015-Apr-13 08:32N 37°28' W 027°29'1212.7
2015-Apr-13 07:33N 37°28' W 027°44'1312.6
2015-Apr-13 06:33N 37°28' W 028°00'1212.4
2015-Apr-13 05:34N 37°28' W 028°16'1312.7
2015-Apr-13 04:33N 37°28' W 028°32'1313.1
2015-Apr-13 03:33N 37°28' W 028°48'1313.0
2015-Apr-13 02:34N 37°27' W 029°05'1313.0
2015-Apr-13 01:33N 37°27' W 029°21'1312.8
2015-Apr-13 00:33N 37°27' W 029°37'1612.5
2015-Apr-12 23:14N 37°27' W 029°58'1412.5
2015-Apr-12 22:06N 37°25' W 030°15'  
Track history (hours):
 
Tides and Currents Weather Stations Pressure Air Temp Water Temp Dewpoint Dewpoint Depression Visibility Wind Speed Wind Dir Waves Ship Positions

Solidarnosc (vanuatu)

Last reported at 2015-Apr-18 12:33 UTC. Time now 2015-Apr-18 13:08 UTC.
Position N 37°18' E 006°24'.

Length 229 m; beam 32 m.

Type: Ship. MMSI: 576005000.

Date/timePositionNaut miles runAvg speedWind from/ knotsBaromVisibWave heightAir tempDewpointWater temp
2015-Apr-18 12:33N 37°18' E 006°24'1313.0
2015-Apr-18 11:33N 37°16' E 006°08'1512.7
2015-Apr-18 10:20N 37°14' E 005°49'2812.7
2015-Apr-18 08:08N 37°13' E 005°14'13213.4
2015-Apr-17 22:15N 36°57' E 002°30'2413.3
2015-Apr-17 20:29N 36°53' E 002°01'5413.6
2015-Apr-17 16:32N 36°45' E 000°54'1414.3
2015-Apr-17 15:33N 36°43' E 000°37'1514.6
2015-Apr-17 14:33N 36°41' E 000°19'1414.1
2015-Apr-17 13:33N 36°39' E 000°01'3013.4
2015-Apr-17 11:20N 36°34' W 000°35'3813.3
2015-Apr-17 08:28N 36°28' W 001°22'18813.1
2015-Apr-16 18:06N 35°59' W 005°12'815.2
2015-Apr-16 17:34N 35°58' W 005°22'  
2015-Apr-13 22:28N 37°28' W 023°48'1112.7
2015-Apr-13 21:34N 37°28' W 024°02'1312.6
2015-Apr-13 20:33N 37°29' W 024°18'1312.6
2015-Apr-13 19:33N 37°29' W 024°34'1212.1
2015-Apr-13 18:33N 37°29' W 024°49'1312.8
2015-Apr-13 17:34N 37°30' W 025°05'1313.2
2015-Apr-13 16:34N 37°30' W 025°22'1313.1
2015-Apr-13 15:33N 37°30' W 025°39'1312.7
2015-Apr-13 14:33N 37°29' W 025°55'1212.4
2015-Apr-13 13:33N 37°29' W 026°10'1212.4
2015-Apr-13 12:34N 37°29' W 026°26'1212.3
2015-Apr-13 11:33N 37°29' W 026°41'1212.1
2015-Apr-13 10:33N 37°29' W 026°57'1212.5
2015-Apr-13 09:34N 37°28' W 027°12'1312.5
2015-Apr-13 08:32N 37°28' W 027°29'1212.7
2015-Apr-13 07:33N 37°28' W 027°44'1312.6
2015-Apr-13 06:33N 37°28' W 028°00'1212.4
2015-Apr-13 05:34N 37°28' W 028°16'1312.7
2015-Apr-13 04:33N 37°28' W 028°32'1313.1
2015-Apr-13 03:33N 37°28' W 028°48'1313.0
2015-Apr-13 02:34N 37°27' W 029°05'1313.0
2015-Apr-13 01:33N 37°27' W 029°21'1312.8
2015-Apr-13 00:33N 37°27' W 029°37'1612.5
2015-Apr-12 23:14N 37°27' W 029°58'1412.5
2015-Apr-12 22:06N 37°25' W 030°15'  

Dump ship's entire track history